sensor_id;sensor_type;location;lat;lon;timestamp;pressure;altitude;pressure_sealevel;temperature
67353;BMP180;54238;52.278;21.056;2023-11-19T00:01:40;101030.40;;;0.90
67353;BMP180;54238;52.278;21.056;2023-11-19T00:04:12;101030.40;;;0.90
67353;BMP180;54238;52.278;21.056;2023-11-19T00:06:40;101030.80;;;0.92
67353;BMP180;54238;52.278;21.056;2023-11-19T00:09:09;101023.80;;;1.00
67353;BMP180;54238;52.278;21.056;2023-11-19T00:11:38;101016.60;;;1.00
67353;BMP180;54238;52.278;21.056;2023-11-19T00:14:07;101020.20;;;1.00
67353;BMP180;54238;52.278;21.056;2023-11-19T00:16:37;101026.80;;;1.00
67353;BMP180;54238;52.278;21.056;2023-11-19T00:19:06;101028.60;;;1.00
67353;BMP180;54238;52.278;21.056;2023-11-19T00:21:37;101022.40;;;1.00
67353;BMP180;54238;52.278;21.056;2023-11-19T00:24:10;101015.80;;;0.90
67353;BMP180;54238;52.278;21.056;2023-11-19T00:26:43;101016.60;;;0.90
67353;BMP180;54238;52.278;21.056;2023-11-19T00:29:10;101014.80;;;0.90
67353;BMP180;54238;52.278;21.056;2023-11-19T00:31:37;101013.00;;;1.00
67353;BMP180;54238;52.278;21.056;2023-11-19T00:34:10;101010.60;;;1.00
67353;BMP180;54238;52.278;21.056;2023-11-19T00:36:40;101012.20;;;1.00
67353;BMP180;54238;52.278;21.056;2023-11-19T00:39:09;101011.60;;;1.00
67353;BMP180;54238;52.278;21.056;2023-11-19T00:41:41;101003.40;;;1.00
67353;BMP180;54238;52.278;21.056;2023-11-19T00:44:12;100994.40;;;1.00
67353;BMP180;54238;52.278;21.056;2023-11-19T00:46:43;100988.20;;;1.08
67353;BMP180;54238;52.278;21.056;2023-11-19T00:49:15;100982.40;;;1.00
67353;BMP180;54238;52.278;21.056;2023-11-19T00:51:44;100977.60;;;1.00
67353;BMP180;54238;52.278;21.056;2023-11-19T00:54:14;100969.40;;;1.00
67353;BMP180;54238;52.278;21.056;2023-11-19T00:56:43;100967.60;;;1.00
67353;BMP180;54238;52.278;21.056;2023-11-19T00:59:12;100970.20;;;1.00
67353;BMP180;54238;52.278;21.056;2023-11-19T01:01:45;100972.20;;;0.96
67353;BMP180;54238;52.278;21.056;2023-11-19T01:04:17;100965.00;;;0.90
67353;BMP180;54238;52.278;21.056;2023-11-19T01:06:46;100960.20;;;0.90
67353;BMP180;54238;52.278;21.056;2023-11-19T01:09:13;100959.80;;;0.96
67353;BMP180;54238;52.278;21.056;2023-11-19T01:11:43;100950.00;;;1.00
67353;BMP180;54238;52.278;21.056;2023-11-19T01:14:12;100941.00;;;1.00
67353;BMP180;54238;52.278;21.056;2023-11-19T01:16:40;100939.00;;;1.08
67353;BMP180;54238;52.278;21.056;2023-11-19T01:19:07;100940.60;;;1.10
67353;BMP180;54238;52.278;21.056;2023-11-19T01:21:34;100936.00;;;1.10
67353;BMP180;54238;52.278;21.056;2023-11-19T01:24:04;100928.20;;;1.10
67353;BMP180;54238;52.278;21.056;2023-11-19T01:26:41;100919.80;;;1.10
67353;BMP180;54238;52.278;21.056;2023-11-19T01:29:17;100915.20;;;1.10
67353;BMP180;54238;52.278;21.056;2023-11-19T01:31:48;100909.80;;;1.10
67353;BMP180;54238;52.278;21.056;2023-11-19T01:34:15;100920.20;;;1.10
67353;BMP180;54238;52.278;21.056;2023-11-19T01:36:44;100925.00;;;1.10
67353;BMP180;54238;52.278;21.056;2023-11-19T01:39:16;100920.80;;;1.10
67353;BMP180;54238;52.278;21.056;2023-11-19T01:41:48;100927.00;;;1.10
67353;BMP180;54238;52.278;21.056;2023-11-19T01:44:18;100930.60;;;1.10
67353;BMP180;54238;52.278;21.056;2023-11-19T01:46:49;100927.00;;;1.08
67353;BMP180;54238;52.278;21.056;2023-11-19T01:49:19;100919.40;;;1.00
67353;BMP180;54238;52.278;21.056;2023-11-19T01:51:52;100908.00;;;1.00
67353;BMP180;54238;52.278;21.056;2023-11-19T01:54:27;100901.20;;;1.00
67353;BMP180;54238;52.278;21.056;2023-11-19T01:57:01;100893.40;;;1.00
67353;BMP180;54238;52.278;21.056;2023-11-19T01:59:31;100885.00;;;1.04
67353;BMP180;54238;52.278;21.056;2023-11-19T02:01:58;100886.80;;;1.10
67353;BMP180;54238;52.278;21.056;2023-11-19T02:04:26;100883.20;;;1.10
67353;BMP180;54238;52.278;21.056;2023-11-19T02:07:01;100881.20;;;1.10
67353;BMP180;54238;52.278;21.056;2023-11-19T02:09:30;100877.20;;;1.10
67353;BMP180;54238;52.278;21.056;2023-11-19T02:12:02;100880.80;;;1.00
67353;BMP180;54238;52.278;21.056;2023-11-19T02:14:32;100868.40;;;1.06
67353;BMP180;54238;52.278;21.056;2023-11-19T02:17:01;100874.00;;;1.10
67353;BMP180;54238;52.278;21.056;2023-11-19T02:19:34;100868.40;;;1.00
67353;BMP180;54238;52.278;21.056;2023-11-19T02:22:07;100863.40;;;1.00
67353;BMP180;54238;52.278;21.056;2023-11-19T02:24:34;100858.80;;;1.06
67353;BMP180;54238;52.278;21.056;2023-11-19T02:30:19;100852.60;;;1.04
67353;BMP180;54238;52.278;21.056;2023-11-19T02:32:45;100854.00;;;1.00
67353;BMP180;54238;52.278;21.056;2023-11-19T02:35:12;100852.40;;;1.00
67353;BMP180;54238;52.278;21.056;2023-11-19T02:37:42;100850.80;;;1.00
67353;BMP180;54238;52.278;21.056;2023-11-19T02:40:11;100850.40;;;1.08
67353;BMP180;54238;52.278;21.056;2023-11-19T02:42:40;100843.80;;;1.10
67353;BMP180;54238;52.278;21.056;2023-11-19T02:45:12;100837.40;;;1.10
67353;BMP180;54238;52.278;21.056;2023-11-19T02:47:45;100834.00;;;1.10
67353;BMP180;54238;52.278;21.056;2023-11-19T02:50:15;100835.00;;;1.10
67353;BMP180;54238;52.278;21.056;2023-11-19T02:52:44;100825.00;;;1.10
67353;BMP180;54238;52.278;21.056;2023-11-19T02:55:15;100820.20;;;1.10
67353;BMP180;54238;52.278;21.056;2023-11-19T02:57:48;100818.00;;;1.10
67353;BMP180;54238;52.278;21.056;2023-11-19T03:00:21;100811.40;;;1.10
67353;BMP180;54238;52.278;21.056;2023-11-19T03:02:54;100807.60;;;1.10
67353;BMP180;54238;52.278;21.056;2023-11-19T03:05:27;100799.80;;;1.10
67353;BMP180;54238;52.278;21.056;2023-11-19T03:07:59;100800.40;;;1.10
67353;BMP180;54238;52.278;21.056;2023-11-19T03:10:31;100792.40;;;1.10
67353;BMP180;54238;52.278;21.056;2023-11-19T03:13:03;100792.20;;;1.10
67353;BMP180;54238;52.278;21.056;2023-11-19T03:15:38;100789.80;;;1.20
67353;BMP180;54238;52.278;21.056;2023-11-19T03:18:05;100778.80;;;1.20
67353;BMP180;54238;52.278;21.056;2023-11-19T03:20:35;100781.00;;;1.20
67353;BMP180;54238;52.278;21.056;2023-11-19T03:23:02;100781.20;;;1.20
67353;BMP180;54238;52.278;21.056;2023-11-19T03:25:31;100774.80;;;1.20
67353;BMP180;54238;52.278;21.056;2023-11-19T03:28:04;100768.80;;;1.20
67353;BMP180;54238;52.278;21.056;2023-11-19T03:30:33;100766.40;;;1.20
67353;BMP180;54238;52.278;21.056;2023-11-19T03:33:00;100755.60;;;1.20
67353;BMP180;54238;52.278;21.056;2023-11-19T03:35:32;100747.60;;;1.20
67353;BMP180;54238;52.278;21.056;2023-11-19T03:38:02;100749.60;;;1.20
67353;BMP180;54238;52.278;21.056;2023-11-19T03:40:32;100750.80;;;1.20
67353;BMP180;54238;52.278;21.056;2023-11-19T03:43:05;100754.20;;;1.20
67353;BMP180;54238;52.278;21.056;2023-11-19T03:45:36;100750.20;;;1.20
67353;BMP180;54238;52.278;21.056;2023-11-19T03:48:07;100749.00;;;1.20
67353;BMP180;54238;52.278;21.056;2023-11-19T03:50:36;100751.00;;;1.20
67353;BMP180;54238;52.278;21.056;2023-11-19T03:53:06;100747.40;;;1.20
67353;BMP180;54238;52.278;21.056;2023-11-19T03:55:35;100736.40;;;1.20
67353;BMP180;54238;52.278;21.056;2023-11-19T03:58:04;100737.40;;;1.20
67353;BMP180;54238;52.278;21.056;2023-11-19T04:00:32;100729.60;;;1.18
67353;BMP180;54238;52.278;21.056;2023-11-19T04:03:04;100722.40;;;1.16
67353;BMP180;54238;52.278;21.056;2023-11-19T04:05:36;100719.20;;;1.20
67353;BMP180;54238;52.278;21.056;2023-11-19T04:08:08;100711.00;;;1.20
67353;BMP180;54238;52.278;21.056;2023-11-19T04:10:37;100716.00;;;1.20
67353;BMP180;54238;52.278;21.056;2023-11-19T04:13:07;100709.00;;;1.20
67353;BMP180;54238;52.278;21.056;2023-11-19T04:15:38;100703.80;;;1.20
67353;BMP180;54238;52.278;21.056;2023-11-19T04:18:05;100699.20;;;1.20
67353;BMP180;54238;52.278;21.056;2023-11-19T04:20:35;100689.20;;;1.20
67353;BMP180;54238;52.278;21.056;2023-11-19T04:23:03;100693.00;;;1.20
67353;BMP180;54238;52.278;21.056;2023-11-19T04:25:32;100683.80;;;1.28
67353;BMP180;54238;52.278;21.056;2023-11-19T04:28:04;100683.40;;;1.30
67353;BMP180;54238;52.278;21.056;2023-11-19T04:30:33;100680.80;;;1.30
67353;BMP180;54238;52.278;21.056;2023-11-19T04:33:12;100671.80;;;1.30
67353;BMP180;54238;52.278;21.056;2023-11-19T04:35:43;100670.80;;;1.30
67353;BMP180;54238;52.278;21.056;2023-11-19T04:38:13;100666.20;;;1.30
67353;BMP180;54238;52.278;21.056;2023-11-19T04:40:44;100662.40;;;1.28
67353;BMP180;54238;52.278;21.056;2023-11-19T04:43:14;100655.60;;;1.22
67353;BMP180;54238;52.278;21.056;2023-11-19T04:45:45;100654.40;;;1.20
67353;BMP180;54238;52.278;21.056;2023-11-19T04:48:12;100652.80;;;1.20
67353;BMP180;54238;52.278;21.056;2023-11-19T04:50:39;100646.40;;;1.20
67353;BMP180;54238;52.278;21.056;2023-11-19T04:53:09;100643.80;;;1.20
67353;BMP180;54238;52.278;21.056;2023-11-19T04:55:39;100644.20;;;1.20
67353;BMP180;54238;52.278;21.056;2023-11-19T04:58:11;100646.00;;;1.20
67353;BMP180;54238;52.278;21.056;2023-11-19T05:00:42;100642.00;;;1.20
67353;BMP180;54238;52.278;21.056;2023-11-19T05:03:12;100637.60;;;1.20
67353;BMP180;54238;52.278;21.056;2023-11-19T05:05:41;100636.80;;;1.20
67353;BMP180;54238;52.278;21.056;2023-11-19T05:08:08;100635.80;;;1.20
67353;BMP180;54238;52.278;21.056;2023-11-19T05:10:35;100631.60;;;1.20
67353;BMP180;54238;52.278;21.056;2023-11-19T05:13:03;100625.00;;;1.20
67353;BMP180;54238;52.278;21.056;2023-11-19T05:15:30;100617.40;;;1.18
67353;BMP180;54238;52.278;21.056;2023-11-19T05:18:00;100610.60;;;1.10
67353;BMP180;54238;52.278;21.056;2023-11-19T05:20:27;100608.00;;;1.10
67353;BMP180;54238;52.278;21.056;2023-11-19T05:22:58;100605.60;;;1.10
67353;BMP180;54238;52.278;21.056;2023-11-19T05:25:28;100599.60;;;1.10
67353;BMP180;54238;52.278;21.056;2023-11-19T05:27:55;100604.40;;;1.10
67353;BMP180;54238;52.278;21.056;2023-11-19T05:30:24;100604.20;;;1.10
67353;BMP180;54238;52.278;21.056;2023-11-19T05:32:53;100601.00;;;1.10
67353;BMP180;54238;52.278;21.056;2023-11-19T05:35:22;100602.40;;;1.10
67353;BMP180;54238;52.278;21.056;2023-11-19T05:37:54;100596.60;;;1.10
67353;BMP180;54238;52.278;21.056;2023-11-19T05:40:28;100594.60;;;1.04
67353;BMP180;54238;52.278;21.056;2023-11-19T05:42:55;100584.20;;;1.00
67353;BMP180;54238;52.278;21.056;2023-11-19T05:45:27;100591.80;;;1.00
67353;BMP180;54238;52.278;21.056;2023-11-19T05:48:01;100592.00;;;1.00
67353;BMP180;54238;52.278;21.056;2023-11-19T05:50:31;100589.60;;;1.00
67353;BMP180;54238;52.278;21.056;2023-11-19T05:53:01;100587.40;;;1.00
67353;BMP180;54238;52.278;21.056;2023-11-19T05:55:40;100586.40;;;1.00
67353;BMP180;54238;52.278;21.056;2023-11-19T05:58:15;100585.20;;;1.02
67353;BMP180;54238;52.278;21.056;2023-11-19T06:00:42;100582.80;;;1.02
67353;BMP180;54238;52.278;21.056;2023-11-19T06:03:09;100585.40;;;1.02
67353;BMP180;54238;52.278;21.056;2023-11-19T06:05:36;100582.60;;;1.00
67353;BMP180;54238;52.278;21.056;2023-11-19T06:08:10;100579.00;;;1.00
67353;BMP180;54238;52.278;21.056;2023-11-19T06:10:42;100581.40;;;1.02
67353;BMP180;54238;52.278;21.056;2023-11-19T06:13:10;100586.00;;;1.00
67353;BMP180;54238;52.278;21.056;2023-11-19T06:15:45;100583.00;;;1.00
67353;BMP180;54238;52.278;21.056;2023-11-19T06:18:12;100585.20;;;1.00
67353;BMP180;54238;52.278;21.056;2023-11-19T06:20:41;100583.40;;;1.04
67353;BMP180;54238;52.278;21.056;2023-11-19T06:23:11;100582.00;;;1.08
67353;BMP180;54238;52.278;21.056;2023-11-19T06:25:40;100574.20;;;1.04
67353;BMP180;54238;52.278;21.056;2023-11-19T06:28:12;100569.00;;;1.08
67353;BMP180;54238;52.278;21.056;2023-11-19T06:30:41;100572.00;;;1.10
67353;BMP180;54238;52.278;21.056;2023-11-19T06:33:15;100570.00;;;1.10
67353;BMP180;54238;52.278;21.056;2023-11-19T06:35:47;100563.60;;;1.10
67353;BMP180;54238;52.278;21.056;2023-11-19T06:38:15;100551.00;;;1.10
67353;BMP180;54238;52.278;21.056;2023-11-19T06:40:46;100555.00;;;1.14
67353;BMP180;54238;52.278;21.056;2023-11-19T06:43:13;100551.60;;;1.10
67353;BMP180;54238;52.278;21.056;2023-11-19T06:45:46;100552.80;;;1.20
67353;BMP180;54238;52.278;21.056;2023-11-19T06:48:13;100544.60;;;1.18
67353;BMP180;54238;52.278;21.056;2023-11-19T06:50:42;100537.80;;;1.20
67353;BMP180;54238;52.278;21.056;2023-11-19T06:53:09;100534.00;;;1.20
67353;BMP180;54238;52.278;21.056;2023-11-19T06:55:39;100529.00;;;1.20
67353;BMP180;54238;52.278;21.056;2023-11-19T06:58:11;100526.00;;;1.20
67353;BMP180;54238;52.278;21.056;2023-11-19T07:00:42;100526.00;;;1.20
67353;BMP180;54238;52.278;21.056;2023-11-19T07:03:09;100520.60;;;1.20
67353;BMP180;54238;52.278;21.056;2023-11-19T07:05:39;100518.20;;;1.20
67353;BMP180;54238;52.278;21.056;2023-11-19T07:08:06;100518.00;;;1.20
67353;BMP180;54238;52.278;21.056;2023-11-19T07:10:40;100509.80;;;1.20
67353;BMP180;54238;52.278;21.056;2023-11-19T07:13:10;100509.20;;;1.28
67353;BMP180;54238;52.278;21.056;2023-11-19T07:15:37;100501.00;;;1.30
67353;BMP180;54238;52.278;21.056;2023-11-19T07:18:06;100495.40;;;1.30
67353;BMP180;54238;52.278;21.056;2023-11-19T07:20:40;100499.20;;;1.30
67353;BMP180;54238;52.278;21.056;2023-11-19T07:23:07;100493.00;;;1.30
67353;BMP180;54238;52.278;21.056;2023-11-19T07:25:37;100491.80;;;1.20
67353;BMP180;54238;52.278;21.056;2023-11-19T07:28:03;100489.00;;;1.20
67353;BMP180;54238;52.278;21.056;2023-11-19T07:30:33;100492.00;;;1.20
67353;BMP180;54238;52.278;21.056;2023-11-19T07:33:02;100490.80;;;1.20
67353;BMP180;54238;52.278;21.056;2023-11-19T07:35:35;100489.00;;;1.20
67353;BMP180;54238;52.278;21.056;2023-11-19T07:38:05;100480.60;;;1.20
67353;BMP180;54238;52.278;21.056;2023-11-19T07:40:34;100484.40;;;1.20
67353;BMP180;54238;52.278;21.056;2023-11-19T07:43:06;100480.40;;;1.20
67353;BMP180;54238;52.278;21.056;2023-11-19T07:45:36;100480.00;;;1.10
67353;BMP180;54238;52.278;21.056;2023-11-19T07:48:05;100476.00;;;1.10
67353;BMP180;54238;52.278;21.056;2023-11-19T07:50:33;100477.60;;;1.10
67353;BMP180;54238;52.278;21.056;2023-11-19T07:53:03;100472.40;;;1.10
67353;BMP180;54238;52.278;21.056;2023-11-19T07:55:33;100471.80;;;1.00
67353;BMP180;54238;52.278;21.056;2023-11-19T07:58:07;100468.00;;;1.00
67353;BMP180;54238;52.278;21.056;2023-11-19T08:00:37;100460.60;;;1.00
67353;BMP180;54238;52.278;21.056;2023-11-19T08:03:07;100456.00;;;1.00
67353;BMP180;54238;52.278;21.056;2023-11-19T08:05:37;100449.40;;;1.10
67353;BMP180;54238;52.278;21.056;2023-11-19T08:08:09;100443.20;;;1.10
67353;BMP180;54238;52.278;21.056;2023-11-19T08:10:37;100440.80;;;1.16
67353;BMP180;54238;52.278;21.056;2023-11-19T08:13:07;100443.60;;;1.20
67353;BMP180;54238;52.278;21.056;2023-11-19T08:15:34;100440.80;;;1.22
67353;BMP180;54238;52.278;21.056;2023-11-19T08:18:06;100437.20;;;1.30
67353;BMP180;54238;52.278;21.056;2023-11-19T08:20:36;100426.20;;;1.30
67353;BMP180;54238;52.278;21.056;2023-11-19T08:23:08;100425.60;;;1.38
67353;BMP180;54238;52.278;21.056;2023-11-19T08:25:35;100426.40;;;1.40
67353;BMP180;54238;52.278;21.056;2023-11-19T08:28:04;100423.40;;;1.48
67353;BMP180;54238;52.278;21.056;2023-11-19T08:30:31;100420.80;;;1.50
67353;BMP180;54238;52.278;21.056;2023-11-19T08:33:01;100414.20;;;1.60
67353;BMP180;54238;52.278;21.056;2023-11-19T08:35:32;100410.00;;;1.60
67353;BMP180;54238;52.278;21.056;2023-11-19T08:37:59;100409.60;;;1.70
67353;BMP180;54238;52.278;21.056;2023-11-19T08:40:34;100413.00;;;1.70
67353;BMP180;54238;52.278;21.056;2023-11-19T08:43:00;100405.20;;;1.70
67353;BMP180;54238;52.278;21.056;2023-11-19T08:45:27;100402.00;;;1.80
67353;BMP180;54238;52.278;21.056;2023-11-19T08:47:55;100401.80;;;1.90
67353;BMP180;54238;52.278;21.056;2023-11-19T08:50:22;100397.00;;;1.90
67353;BMP180;54238;52.278;21.056;2023-11-19T08:52:51;100400.00;;;2.00
67353;BMP180;54238;52.278;21.056;2023-11-19T08:55:21;100402.00;;;2.06
67353;BMP180;54238;52.278;21.056;2023-11-19T08:57:50;100401.40;;;2.10
67353;BMP180;54238;52.278;21.056;2023-11-19T09:00:20;100393.40;;;2.10
67353;BMP180;54238;52.278;21.056;2023-11-19T09:02:51;100389.00;;;2.10
67353;BMP180;54238;52.278;21.056;2023-11-19T09:05:18;100390.00;;;2.10
67353;BMP180;54238;52.278;21.056;2023-11-19T09:07:49;100387.80;;;2.10
67353;BMP180;54238;52.278;21.056;2023-11-19T09:10:16;100377.20;;;2.10
67353;BMP180;54238;52.278;21.056;2023-11-19T09:12:49;100370.60;;;2.10
67353;BMP180;54238;52.278;21.056;2023-11-19T09:15:18;100366.80;;;2.20
67353;BMP180;54238;52.278;21.056;2023-11-19T09:17:50;100362.40;;;2.18
67353;BMP180;54238;52.278;21.056;2023-11-19T09:20:17;100362.00;;;2.20
67353;BMP180;54238;52.278;21.056;2023-11-19T09:22:49;100357.20;;;2.20
67353;BMP180;54238;52.278;21.056;2023-11-19T09:25:21;100353.40;;;2.30
67353;BMP180;54238;52.278;21.056;2023-11-19T09:27:50;100349.60;;;2.30
67353;BMP180;54238;52.278;21.056;2023-11-19T09:30:21;100349.00;;;2.30
67353;BMP180;54238;52.278;21.056;2023-11-19T09:32:49;100340.60;;;2.22
67353;BMP180;54238;52.278;21.056;2023-11-19T09:35:16;100339.40;;;2.20
67353;BMP180;54238;52.278;21.056;2023-11-19T09:37:43;100335.00;;;2.20
67353;BMP180;54238;52.278;21.056;2023-11-19T09:40:13;100335.00;;;2.20
67353;BMP180;54238;52.278;21.056;2023-11-19T09:42:45;100330.60;;;2.20
67353;BMP180;54238;52.278;21.056;2023-11-19T09:45:21;100326.20;;;2.20
67353;BMP180;54238;52.278;21.056;2023-11-19T09:47:53;100321.60;;;2.10
67353;BMP180;54238;52.278;21.056;2023-11-19T09:50:28;100307.60;;;2.00
67353;BMP180;54238;52.278;21.056;2023-11-19T09:53:01;100309.60;;;2.00
67353;BMP180;54238;52.278;21.056;2023-11-19T09:55:33;100311.00;;;2.00
67353;BMP180;54238;52.278;21.056;2023-11-19T09:58:04;100305.60;;;2.00
67353;BMP180;54238;52.278;21.056;2023-11-19T10:00:34;100301.60;;;2.00
67353;BMP180;54238;52.278;21.056;2023-11-19T10:03:12;100302.20;;;2.00
67353;BMP180;54238;52.278;21.056;2023-11-19T10:05:43;100293.80;;;2.00
67353;BMP180;54238;52.278;21.056;2023-11-19T10:08:14;100291.80;;;2.00
67353;BMP180;54238;52.278;21.056;2023-11-19T10:10:47;100288.00;;;2.06
67353;BMP180;54238;52.278;21.056;2023-11-19T10:13:18;100284.40;;;2.00
67353;BMP180;54238;52.278;21.056;2023-11-19T10:15:52;100280.20;;;2.00
67353;BMP180;54238;52.278;21.056;2023-11-19T10:18:28;100276.00;;;2.02
67353;BMP180;54238;52.278;21.056;2023-11-19T10:20:58;100270.20;;;2.10
67353;BMP180;54238;52.278;21.056;2023-11-19T10:23:47;100262.60;;;2.02
67353;BMP180;54238;52.278;21.056;2023-11-19T10:26:15;100257.00;;;2.10
67353;BMP180;54238;52.278;21.056;2023-11-19T10:28:48;100256.60;;;2.00
67353;BMP180;54238;52.278;21.056;2023-11-19T10:31:20;100249.00;;;2.04
67353;BMP180;54238;52.278;21.056;2023-11-19T10:33:53;100254.00;;;2.04
67353;BMP180;54238;52.278;21.056;2023-11-19T10:36:38;100246.00;;;2.08
67353;BMP180;54238;52.278;21.056;2023-11-19T10:39:12;100237.00;;;2.06
67353;BMP180;54238;52.278;21.056;2023-11-19T10:41:42;100234.60;;;2.10
67353;BMP180;54238;52.278;21.056;2023-11-19T10:44:11;100231.00;;;2.10
67353;BMP180;54238;52.278;21.056;2023-11-19T10:46:42;100223.20;;;2.10
67353;BMP180;54238;52.278;21.056;2023-11-19T10:49:15;100216.40;;;2.10
67353;BMP180;54238;52.278;21.056;2023-11-19T10:51:45;100217.40;;;2.10
67353;BMP180;54238;52.278;21.056;2023-11-19T10:54:22;100212.40;;;2.10
67353;BMP180;54238;52.278;21.056;2023-11-19T10:56:58;100215.60;;;2.10
67353;BMP180;54238;52.278;21.056;2023-11-19T10:59:32;100205.00;;;2.16
67353;BMP180;54238;52.278;21.056;2023-11-19T11:02:07;100195.20;;;2.12
67353;BMP180;54238;52.278;21.056;2023-11-19T11:04:40;100188.60;;;2.14
67353;BMP180;54238;52.278;21.056;2023-11-19T11:07:13;100172.20;;;2.10
67353;BMP180;54238;52.278;21.056;2023-11-19T11:09:47;100170.20;;;2.10
67353;BMP180;54238;52.278;21.056;2023-11-19T11:12:24;100165.60;;;2.10
67353;BMP180;54238;52.278;21.056;2023-11-19T11:14:55;100164.60;;;2.10
67353;BMP180;54238;52.278;21.056;2023-11-19T11:17:27;100156.80;;;2.10
67353;BMP180;54238;52.278;21.056;2023-11-19T11:19:57;100148.20;;;2.10
67353;BMP180;54238;52.278;21.056;2023-11-19T11:22:36;100143.60;;;2.10
67353;BMP180;54238;52.278;21.056;2023-11-19T11:31:15;100132.40;;;2.04
67353;BMP180;54238;52.278;21.056;2023-11-19T11:36:58;100120.20;;;2.00
67353;BMP180;54238;52.278;21.056;2023-11-19T11:39:32;100117.60;;;2.00
67353;BMP180;54238;52.278;21.056;2023-11-19T11:50:18;100108.20;;;1.96
67353;BMP180;54238;52.278;21.056;2023-11-19T11:55:35;100087.60;;;1.90
67353;BMP180;54238;52.278;21.056;2023-11-19T11:58:06;100085.20;;;1.92
67353;BMP180;54238;52.278;21.056;2023-11-19T12:03:08;100077.00;;;1.90
67353;BMP180;54238;52.278;21.056;2023-11-19T12:05:44;100075.40;;;1.90
67353;BMP180;54238;52.278;21.056;2023-11-19T12:08:18;100061.80;;;1.90
67353;BMP180;54238;52.278;21.056;2023-11-19T12:10:55;100049.20;;;1.90
67353;BMP180;54238;52.278;21.056;2023-11-19T12:13:46;100046.80;;;1.90
67353;BMP180;54238;52.278;21.056;2023-11-19T12:16:17;100040.20;;;1.90
67353;BMP180;54238;52.278;21.056;2023-11-19T12:18:44;100043.40;;;1.90
67353;BMP180;54238;52.278;21.056;2023-11-19T12:21:11;100040.80;;;1.90
67353;BMP180;54238;52.278;21.056;2023-11-19T12:23:59;100029.00;;;1.90
67353;BMP180;54238;52.278;21.056;2023-11-19T12:26:35;100027.40;;;1.90
67353;BMP180;54238;52.278;21.056;2023-11-19T12:29:03;100010.60;;;1.90
67353;BMP180;54238;52.278;21.056;2023-11-19T12:31:33;100012.80;;;1.90
67353;BMP180;54238;52.278;21.056;2023-11-19T12:34:05;100012.40;;;1.90
67353;BMP180;54238;52.278;21.056;2023-11-19T12:36:36;100012.20;;;1.90
67353;BMP180;54238;52.278;21.056;2023-11-19T12:39:03;100003.40;;;1.90
67353;BMP180;54238;52.278;21.056;2023-11-19T12:41:49;99992.40;;;1.90
67353;BMP180;54238;52.278;21.056;2023-11-19T12:44:22;99995.80;;;1.90
67353;BMP180;54238;52.278;21.056;2023-11-19T12:47:08;99997.00;;;1.90
67353;BMP180;54238;52.278;21.056;2023-11-19T12:49:45;99994.40;;;1.90
67353;BMP180;54238;52.278;21.056;2023-11-19T12:52:23;99990.40;;;1.92
67353;BMP180;54238;52.278;21.056;2023-11-19T12:54:58;99992.80;;;1.98
67353;BMP180;54238;52.278;21.056;2023-11-19T12:57:42;99988.40;;;2.00
67353;BMP180;54238;52.278;21.056;2023-11-19T13:00:22;99987.40;;;2.00
67353;BMP180;54238;52.278;21.056;2023-11-19T13:02:54;99991.00;;;2.00
67353;BMP180;54238;52.278;21.056;2023-11-19T13:05:31;99986.60;;;2.00
67353;BMP180;54238;52.278;21.056;2023-11-19T13:08:09;99984.00;;;2.00
67353;BMP180;54238;52.278;21.056;2023-11-19T13:13:18;99977.60;;;1.90
67353;BMP180;54238;52.278;21.056;2023-11-19T13:15:48;99977.00;;;1.90
67353;BMP180;54238;52.278;21.056;2023-11-19T13:18:16;99977.20;;;1.90
67353;BMP180;54238;52.278;21.056;2023-11-19T13:20:46;99968.40;;;1.90
67353;BMP180;54238;52.278;21.056;2023-11-19T13:23:15;99968.80;;;1.84
67353;BMP180;54238;52.278;21.056;2023-11-19T13:25:42;99961.60;;;1.80
67353;BMP180;54238;52.278;21.056;2023-11-19T13:28:12;99957.40;;;1.80
67353;BMP180;54238;52.278;21.056;2023-11-19T13:30:39;99955.20;;;1.80
67353;BMP180;54238;52.278;21.056;2023-11-19T13:33:11;99942.40;;;1.80
67353;BMP180;54238;52.278;21.056;2023-11-19T13:35:42;99933.80;;;1.80
67353;BMP180;54238;52.278;21.056;2023-11-19T13:38:12;99925.80;;;1.80
67353;BMP180;54238;52.278;21.056;2023-11-19T13:40:41;99922.20;;;1.80
67353;BMP180;54238;52.278;21.056;2023-11-19T13:43:10;99916.40;;;1.80
67353;BMP180;54238;52.278;21.056;2023-11-19T13:45:38;99916.00;;;1.78
67353;BMP180;54238;52.278;21.056;2023-11-19T13:48:07;99907.60;;;1.70
67353;BMP180;54238;52.278;21.056;2023-11-19T13:50:34;99899.40;;;1.70
67353;BMP180;54238;52.278;21.056;2023-11-19T13:53:01;99897.80;;;1.70
67353;BMP180;54238;52.278;21.056;2023-11-19T13:55:28;99894.20;;;1.66
67353;BMP180;54238;52.278;21.056;2023-11-19T13:58:00;99886.20;;;1.60
67353;BMP180;54238;52.278;21.056;2023-11-19T14:00:30;99876.00;;;1.60
67353;BMP180;54238;52.278;21.056;2023-11-19T14:02:59;99874.60;;;1.60
67353;BMP180;54238;52.278;21.056;2023-11-19T14:05:27;99876.60;;;1.60
67353;BMP180;54238;52.278;21.056;2023-11-19T14:07:56;99877.40;;;1.60
67353;BMP180;54238;52.278;21.056;2023-11-19T14:10:24;99869.20;;;1.56
67353;BMP180;54238;52.278;21.056;2023-11-19T14:12:56;99864.20;;;1.52
67353;BMP180;54238;52.278;21.056;2023-11-19T14:15:25;99864.60;;;1.50
67353;BMP180;54238;52.278;21.056;2023-11-19T14:17:52;99854.80;;;1.60
67353;BMP180;54238;52.278;21.056;2023-11-19T14:20:22;99850.00;;;1.60
67353;BMP180;54238;52.278;21.056;2023-11-19T14:22:53;99848.00;;;1.60
67353;BMP180;54238;52.278;21.056;2023-11-19T14:25:20;99851.20;;;1.60
67353;BMP180;54238;52.278;21.056;2023-11-19T14:27:55;99847.60;;;1.60
67353;BMP180;54238;52.278;21.056;2023-11-19T14:30:24;99842.60;;;1.60
67353;BMP180;54238;52.278;21.056;2023-11-19T14:32:56;99840.80;;;1.58
67353;BMP180;54238;52.278;21.056;2023-11-19T14:35:23;99840.80;;;1.54
67353;BMP180;54238;52.278;21.056;2023-11-19T14:37:51;99836.40;;;1.50
67353;BMP180;54238;52.278;21.056;2023-11-19T14:40:19;99838.40;;;1.50
67353;BMP180;54238;52.278;21.056;2023-11-19T14:42:46;99836.40;;;1.50
67353;BMP180;54238;52.278;21.056;2023-11-19T14:45:19;99832.20;;;1.50
67353;BMP180;54238;52.278;21.056;2023-11-19T14:47:49;99828.60;;;1.50